sensor_id;sensor_type;location;lat;lon;timestamp;P1;durP1;ratioP1;P2;durP2;ratioP2
73113;SDS011;61301;51.956;5.876;2023-03-01T00:00:47;2.03;;;1.20;;
73113;SDS011;61301;51.956;5.876;2023-03-01T00:03:13;0.98;;;0.85;;
73113;SDS011;61301;51.956;5.876;2023-03-01T00:05:45;1.10;;;0.70;;
73113;SDS011;61301;51.956;5.876;2023-03-01T00:08:12;1.47;;;1.07;;
73113;SDS011;61301;51.956;5.876;2023-03-01T00:10:38;2.30;;;1.20;;
73113;SDS011;61301;51.956;5.876;2023-03-01T00:13:04;1.30;;;0.85;;
73113;SDS011;61301;51.956;5.876;2023-03-01T00:15:31;1.77;;;1.00;;
73113;SDS011;61301;51.956;5.876;2023-03-01T00:18:00;1.05;;;0.88;;
73113;SDS011;61301;51.956;5.876;2023-03-01T00:20:26;0.95;;;0.75;;
73113;SDS011;61301;51.956;5.876;2023-03-01T00:22:52;1.17;;;0.75;;
73113;SDS011;61301;51.956;5.876;2023-03-01T00:25:18;1.00;;;0.90;;
73113;SDS011;61301;51.956;5.876;2023-03-01T00:27:44;1.25;;;0.88;;
73113;SDS011;61301;51.956;5.876;2023-03-01T00:30:10;1.42;;;0.70;;
73113;SDS011;61301;51.956;5.876;2023-03-01T00:32:36;2.15;;;0.68;;
73113;SDS011;61301;51.956;5.876;2023-03-01T00:35:02;0.85;;;0.68;;
73113;SDS011;61301;51.956;5.876;2023-03-01T00:37:28;1.30;;;0.70;;
73113;SDS011;61301;51.956;5.876;2023-03-01T00:39:54;1.48;;;0.68;;
73113;SDS011;61301;51.956;5.876;2023-03-01T00:42:20;1.20;;;0.70;;
73113;SDS011;61301;51.956;5.876;2023-03-01T00:44:47;1.48;;;0.80;;
73113;SDS011;61301;51.956;5.876;2023-03-01T00:47:19;1.10;;;0.70;;
73113;SDS011;61301;51.956;5.876;2023-03-01T00:49:46;1.23;;;0.70;;
73113;SDS011;61301;51.956;5.876;2023-03-01T00:52:12;0.80;;;0.80;;
73113;SDS011;61301;51.956;5.876;2023-03-01T00:54:38;1.10;;;0.90;;
73113;SDS011;61301;51.956;5.876;2023-03-01T00:57:04;2.33;;;1.00;;
73113;SDS011;61301;51.956;5.876;2023-03-01T00:59:29;1.85;;;0.73;;
73113;SDS011;61301;51.956;5.876;2023-03-01T01:01:55;0.90;;;0.70;;
73113;SDS011;61301;51.956;5.876;2023-03-01T01:04:22;1.00;;;0.85;;
73113;SDS011;61301;51.956;5.876;2023-03-01T01:06:48;1.42;;;1.00;;
73113;SDS011;61301;51.956;5.876;2023-03-01T01:09:15;0.90;;;0.63;;
73113;SDS011;61301;51.956;5.876;2023-03-01T01:11:43;2.05;;;1.25;;
73113;SDS011;61301;51.956;5.876;2023-03-01T01:14:11;2.28;;;1.05;;
73113;SDS011;61301;51.956;5.876;2023-03-01T01:16:37;0.85;;;0.73;;
73113;SDS011;61301;51.956;5.876;2023-03-01T01:19:03;1.52;;;1.02;;
73113;SDS011;61301;51.956;5.876;2023-03-01T01:21:29;1.70;;;1.30;;
73113;SDS011;61301;51.956;5.876;2023-03-01T01:23:56;1.27;;;1.00;;
73113;SDS011;61301;51.956;5.876;2023-03-01T01:26:27;1.55;;;1.15;;
73113;SDS011;61301;51.956;5.876;2023-03-01T01:28:55;1.10;;;0.88;;
73113;SDS011;61301;51.956;5.876;2023-03-01T01:31:23;2.45;;;1.33;;
73113;SDS011;61301;51.956;5.876;2023-03-01T01:33:50;1.63;;;1.20;;
73113;SDS011;61301;51.956;5.876;2023-03-01T01:36:17;1.60;;;0.95;;
73113;SDS011;61301;51.956;5.876;2023-03-01T01:38:44;2.42;;;1.52;;
73113;SDS011;61301;51.956;5.876;2023-03-01T01:41:10;2.08;;;1.33;;
73113;SDS011;61301;51.956;5.876;2023-03-01T01:43:39;2.33;;;1.13;;
73113;SDS011;61301;51.956;5.876;2023-03-01T01:49:00;1.55;;;1.23;;
73113;SDS011;61301;51.956;5.876;2023-03-01T01:51:33;2.40;;;1.33;;
73113;SDS011;61301;51.956;5.876;2023-03-01T01:54:12;1.90;;;1.27;;
73113;SDS011;61301;51.956;5.876;2023-03-01T01:56:48;1.10;;;1.00;;
73113;SDS011;61301;51.956;5.876;2023-03-01T01:59:18;3.17;;;1.73;;
73113;SDS011;61301;51.956;5.876;2023-03-01T02:01:51;1.65;;;1.27;;
73113;SDS011;61301;51.956;5.876;2023-03-01T02:04:18;1.65;;;1.35;;
73113;SDS011;61301;51.956;5.876;2023-03-01T02:09:41;1.95;;;1.48;;
73113;SDS011;61301;51.956;5.876;2023-03-01T02:12:11;1.25;;;1.00;;
73113;SDS011;61301;51.956;5.876;2023-03-01T02:14:39;1.38;;;0.90;;
73113;SDS011;61301;51.956;5.876;2023-03-01T02:17:05;2.13;;;1.00;;
73113;SDS011;61301;51.956;5.876;2023-03-01T02:22:33;0.82;;;0.82;;
73113;SDS011;61301;51.956;5.876;2023-03-01T02:30:18;3.17;;;1.20;;
73113;SDS011;61301;51.956;5.876;2023-03-01T02:32:46;1.30;;;1.15;;
73113;SDS011;61301;51.956;5.876;2023-03-01T02:35:14;1.67;;;1.33;;
73113;SDS011;61301;51.956;5.876;2023-03-01T02:37:43;1.73;;;1.23;;
73113;SDS011;61301;51.956;5.876;2023-03-01T02:40:14;1.42;;;0.98;;
73113;SDS011;61301;51.956;5.876;2023-03-01T02:42:47;2.17;;;1.30;;
73113;SDS011;61301;51.956;5.876;2023-03-01T02:45:17;1.48;;;1.15;;
73113;SDS011;61301;51.956;5.876;2023-03-01T02:47:43;1.95;;;1.50;;
73113;SDS011;61301;51.956;5.876;2023-03-01T02:53:12;1.52;;;0.90;;
73113;SDS011;61301;51.956;5.876;2023-03-01T02:56:02;1.05;;;0.80;;
73113;SDS011;61301;51.956;5.876;2023-03-01T02:58:32;1.55;;;1.20;;
73113;SDS011;61301;51.956;5.876;2023-03-01T03:01:06;1.20;;;0.90;;
73113;SDS011;61301;51.956;5.876;2023-03-01T03:03:34;1.83;;;1.23;;
73113;SDS011;61301;51.956;5.876;2023-03-01T03:06:00;1.52;;;1.02;;
73113;SDS011;61301;51.956;5.876;2023-03-01T03:08:28;1.80;;;1.60;;
73113;SDS011;61301;51.956;5.876;2023-03-01T03:10:54;1.25;;;1.15;;
73113;SDS011;61301;51.956;5.876;2023-03-01T03:13:21;1.40;;;0.90;;
73113;SDS011;61301;51.956;5.876;2023-03-01T03:15:47;2.92;;;1.35;;
73113;SDS011;61301;51.956;5.876;2023-03-01T03:18:16;2.53;;;1.65;;
73113;SDS011;61301;51.956;5.876;2023-03-01T03:20:44;1.13;;;1.00;;
73113;SDS011;61301;51.956;5.876;2023-03-01T03:23:11;1.55;;;1.15;;
73113;SDS011;61301;51.956;5.876;2023-03-01T03:25:37;1.95;;;1.40;;
73113;SDS011;61301;51.956;5.876;2023-03-01T03:28:04;1.20;;;0.98;;
73113;SDS011;61301;51.956;5.876;2023-03-01T03:30:35;1.63;;;0.80;;
73113;SDS011;61301;51.956;5.876;2023-03-01T03:33:04;1.23;;;0.80;;
73113;SDS011;61301;51.956;5.876;2023-03-01T03:35:33;1.25;;;1.15;;
73113;SDS011;61301;51.956;5.876;2023-03-01T03:38:05;1.50;;;1.08;;
73113;SDS011;61301;51.956;5.876;2023-03-01T03:40:38;1.40;;;1.00;;
73113;SDS011;61301;51.956;5.876;2023-03-01T03:43:06;2.05;;;1.45;;
73113;SDS011;61301;51.956;5.876;2023-03-01T03:45:35;1.77;;;1.63;;
73113;SDS011;61301;51.956;5.876;2023-03-01T03:48:02;2.42;;;1.92;;
73113;SDS011;61301;51.956;5.876;2023-03-01T03:50:30;1.77;;;1.20;;
73113;SDS011;61301;51.956;5.876;2023-03-01T03:52:56;1.55;;;1.13;;
73113;SDS011;61301;51.956;5.876;2023-03-01T03:55:22;1.63;;;1.08;;
73113;SDS011;61301;51.956;5.876;2023-03-01T03:57:48;0.80;;;0.80;;
73113;SDS011;61301;51.956;5.876;2023-03-01T04:00:20;1.45;;;0.88;;
73113;SDS011;61301;51.956;5.876;2023-03-01T04:02:49;0.80;;;0.73;;
73113;SDS011;61301;51.956;5.876;2023-03-01T04:05:17;0.88;;;0.70;;
73113;SDS011;61301;51.956;5.876;2023-03-01T04:07:44;1.77;;;0.60;;
73113;SDS011;61301;51.956;5.876;2023-03-01T04:10:11;1.15;;;0.90;;
73113;SDS011;61301;51.956;5.876;2023-03-01T04:12:39;1.77;;;1.50;;
73113;SDS011;61301;51.956;5.876;2023-03-01T04:15:06;1.33;;;1.10;;
73113;SDS011;61301;51.956;5.876;2023-03-01T04:17:43;1.10;;;1.00;;
73113;SDS011;61301;51.956;5.876;2023-03-01T04:20:11;2.45;;;1.40;;
73113;SDS011;61301;51.956;5.876;2023-03-01T04:22:39;2.78;;;1.67;;
73113;SDS011;61301;51.956;5.876;2023-03-01T04:25:06;2.22;;;1.17;;
73113;SDS011;61301;51.956;5.876;2023-03-01T04:27:33;1.58;;;1.17;;
73113;SDS011;61301;51.956;5.876;2023-03-01T04:29:59;1.23;;;1.10;;
73113;SDS011;61301;51.956;5.876;2023-03-01T04:32:26;2.63;;;1.50;;
73113;SDS011;61301;51.956;5.876;2023-03-01T04:34:52;5.38;;;1.80;;
73113;SDS011;61301;51.956;5.876;2023-03-01T04:37:18;4.25;;;2.30;;
73113;SDS011;61301;51.956;5.876;2023-03-01T04:39:44;1.92;;;1.60;;
73113;SDS011;61301;51.956;5.876;2023-03-01T04:42:11;2.38;;;1.70;;
73113;SDS011;61301;51.956;5.876;2023-03-01T04:44:37;2.22;;;1.55;;
73113;SDS011;61301;51.956;5.876;2023-03-01T04:47:03;1.90;;;1.23;;
73113;SDS011;61301;51.956;5.876;2023-03-01T04:49:29;2.30;;;1.30;;
73113;SDS011;61301;51.956;5.876;2023-03-01T04:51:55;2.08;;;0.98;;
73113;SDS011;61301;51.956;5.876;2023-03-01T04:54:23;1.45;;;1.08;;
73113;SDS011;61301;51.956;5.876;2023-03-01T04:56:49;1.75;;;1.15;;
73113;SDS011;61301;51.956;5.876;2023-03-01T04:59:15;1.15;;;0.90;;
73113;SDS011;61301;51.956;5.876;2023-03-01T05:01:41;1.85;;;1.30;;
73113;SDS011;61301;51.956;5.876;2023-03-01T05:04:08;1.33;;;1.05;;
73113;SDS011;61301;51.956;5.876;2023-03-01T05:06:38;0.88;;;0.80;;
73113;SDS011;61301;51.956;5.876;2023-03-01T05:09:05;1.40;;;1.10;;
73113;SDS011;61301;51.956;5.876;2023-03-01T05:11:31;1.23;;;0.90;;
73113;SDS011;61301;51.956;5.876;2023-03-01T05:14:01;1.17;;;0.98;;
73113;SDS011;61301;51.956;5.876;2023-03-01T05:16:28;1.92;;;1.30;;
73113;SDS011;61301;51.956;5.876;2023-03-01T05:18:56;1.35;;;0.80;;
73113;SDS011;61301;51.956;5.876;2023-03-01T05:21:23;1.25;;;1.05;;
73113;SDS011;61301;51.956;5.876;2023-03-01T05:23:49;2.22;;;1.50;;
73113;SDS011;61301;51.956;5.876;2023-03-01T05:26:16;1.05;;;0.95;;
73113;SDS011;61301;51.956;5.876;2023-03-01T05:28:43;1.17;;;0.95;;
73113;SDS011;61301;51.956;5.876;2023-03-01T05:31:09;1.77;;;1.20;;
73113;SDS011;61301;51.956;5.876;2023-03-01T05:33:36;1.45;;;1.15;;
73113;SDS011;61301;51.956;5.876;2023-03-01T05:36:03;1.67;;;1.30;;
73113;SDS011;61301;51.956;5.876;2023-03-01T05:38:30;1.13;;;0.85;;
73113;SDS011;61301;51.956;5.876;2023-03-01T05:40:56;1.63;;;0.85;;
73113;SDS011;61301;51.956;5.876;2023-03-01T05:43:22;1.58;;;0.80;;
73113;SDS011;61301;51.956;5.876;2023-03-01T05:45:48;1.35;;;1.02;;
73113;SDS011;61301;51.956;5.876;2023-03-01T05:48:14;1.45;;;1.30;;
73113;SDS011;61301;51.956;5.876;2023-03-01T05:50:43;1.55;;;1.08;;
73113;SDS011;61301;51.956;5.876;2023-03-01T05:53:11;1.40;;;1.10;;
73113;SDS011;61301;51.956;5.876;2023-03-01T05:55:40;1.38;;;0.93;;
73113;SDS011;61301;51.956;5.876;2023-03-01T05:58:08;1.08;;;0.90;;
73113;SDS011;61301;51.956;5.876;2023-03-01T06:00:39;1.48;;;0.93;;
73113;SDS011;61301;51.956;5.876;2023-03-01T06:03:06;1.73;;;1.10;;
73113;SDS011;61301;51.956;5.876;2023-03-01T06:05:32;1.95;;;1.13;;
73113;SDS011;61301;51.956;5.876;2023-03-01T06:07:58;2.55;;;1.40;;
73113;SDS011;61301;51.956;5.876;2023-03-01T06:10:25;1.75;;;1.30;;
73113;SDS011;61301;51.956;5.876;2023-03-01T06:12:51;1.90;;;1.58;;
73113;SDS011;61301;51.956;5.876;2023-03-01T06:15:17;1.58;;;1.23;;
73113;SDS011;61301;51.956;5.876;2023-03-01T06:17:44;2.00;;;1.25;;
73113;SDS011;61301;51.956;5.876;2023-03-01T06:22:44;2.08;;;1.23;;
73113;SDS011;61301;51.956;5.876;2023-03-01T06:25:13;1.88;;;1.15;;
73113;SDS011;61301;51.956;5.876;2023-03-01T06:27:41;1.40;;;1.20;;
73113;SDS011;61301;51.956;5.876;2023-03-01T06:30:09;2.10;;;1.15;;
73113;SDS011;61301;51.956;5.876;2023-03-01T06:32:36;1.42;;;1.05;;
73113;SDS011;61301;51.956;5.876;2023-03-01T06:35:03;1.88;;;0.98;;
73113;SDS011;61301;51.956;5.876;2023-03-01T06:37:30;1.25;;;1.00;;
73113;SDS011;61301;51.956;5.876;2023-03-01T06:39:56;1.10;;;1.00;;
73113;SDS011;61301;51.956;5.876;2023-03-01T06:42:22;1.48;;;1.08;;
73113;SDS011;61301;51.956;5.876;2023-03-01T06:44:48;1.20;;;1.02;;
73113;SDS011;61301;51.956;5.876;2023-03-01T06:47:14;1.33;;;0.98;;
73113;SDS011;61301;51.956;5.876;2023-03-01T06:49:40;2.13;;;1.80;;
73113;SDS011;61301;51.956;5.876;2023-03-01T06:52:06;5.05;;;2.20;;
73113;SDS011;61301;51.956;5.876;2023-03-01T06:54:32;5.15;;;3.20;;
73113;SDS011;61301;51.956;5.876;2023-03-01T06:56:58;4.75;;;2.65;;
73113;SDS011;61301;51.956;5.876;2023-03-01T06:59:24;4.80;;;2.90;;
73113;SDS011;61301;51.956;5.876;2023-03-01T07:01:50;3.47;;;2.42;;
73113;SDS011;61301;51.956;5.876;2023-03-01T07:04:16;4.07;;;2.25;;
73113;SDS011;61301;51.956;5.876;2023-03-01T07:06:42;2.40;;;1.83;;
73113;SDS011;61301;51.956;5.876;2023-03-01T07:09:08;5.00;;;2.22;;
73113;SDS011;61301;51.956;5.876;2023-03-01T07:11:34;3.53;;;2.25;;
73113;SDS011;61301;51.956;5.876;2023-03-01T07:14:00;3.60;;;2.22;;
73113;SDS011;61301;51.956;5.876;2023-03-01T07:16:26;3.03;;;2.20;;
73113;SDS011;61301;51.956;5.876;2023-03-01T07:18:52;2.58;;;1.73;;
73113;SDS011;61301;51.956;5.876;2023-03-01T07:21:18;4.15;;;2.80;;
73113;SDS011;61301;51.956;5.876;2023-03-01T07:23:46;2.67;;;2.08;;
73113;SDS011;61301;51.956;5.876;2023-03-01T07:26:13;5.07;;;2.85;;
73113;SDS011;61301;51.956;5.876;2023-03-01T07:28:39;4.90;;;3.47;;
73113;SDS011;61301;51.956;5.876;2023-03-01T07:31:05;5.28;;;3.22;;
73113;SDS011;61301;51.956;5.876;2023-03-01T07:33:31;6.07;;;3.65;;
73113;SDS011;61301;51.956;5.876;2023-03-01T07:35:58;7.03;;;3.63;;
73113;SDS011;61301;51.956;5.876;2023-03-01T07:38:26;4.20;;;3.15;;
73113;SDS011;61301;51.956;5.876;2023-03-01T07:40:53;4.15;;;2.92;;
73113;SDS011;61301;51.956;5.876;2023-03-01T07:43:19;6.97;;;4.28;;
73113;SDS011;61301;51.956;5.876;2023-03-01T07:45:46;7.32;;;3.83;;
73113;SDS011;61301;51.956;5.876;2023-03-01T07:48:12;4.03;;;2.95;;
73113;SDS011;61301;51.956;5.876;2023-03-01T07:50:38;8.05;;;4.20;;
73113;SDS011;61301;51.956;5.876;2023-03-01T07:53:04;8.85;;;4.90;;
73113;SDS011;61301;51.956;5.876;2023-03-01T07:55:30;6.32;;;4.43;;
73113;SDS011;61301;51.956;5.876;2023-03-01T07:57:56;4.38;;;3.25;;
73113;SDS011;61301;51.956;5.876;2023-03-01T08:00:22;7.97;;;4.30;;
73113;SDS011;61301;51.956;5.876;2023-03-01T08:02:48;6.88;;;4.28;;
73113;SDS011;61301;51.956;5.876;2023-03-01T08:05:14;7.63;;;3.47;;
73113;SDS011;61301;51.956;5.876;2023-03-01T08:07:40;6.45;;;4.10;;
73113;SDS011;61301;51.956;5.876;2023-03-01T08:10:06;8.77;;;4.53;;
73113;SDS011;61301;51.956;5.876;2023-03-01T08:12:33;6.55;;;4.43;;
73113;SDS011;61301;51.956;5.876;2023-03-01T08:14:59;9.30;;;4.57;;
73113;SDS011;61301;51.956;5.876;2023-03-01T08:17:25;9.05;;;3.90;;
73113;SDS011;61301;51.956;5.876;2023-03-01T08:19:51;4.45;;;3.38;;
73113;SDS011;61301;51.956;5.876;2023-03-01T08:22:17;6.65;;;4.45;;
73113;SDS011;61301;51.956;5.876;2023-03-01T08:24:43;5.70;;;4.03;;
73113;SDS011;61301;51.956;5.876;2023-03-01T08:27:09;6.13;;;3.80;;
73113;SDS011;61301;51.956;5.876;2023-03-01T08:29:35;7.90;;;4.70;;
73113;SDS011;61301;51.956;5.876;2023-03-01T08:32:01;6.38;;;4.63;;
73113;SDS011;61301;51.956;5.876;2023-03-01T08:34:27;4.68;;;2.92;;
73113;SDS011;61301;51.956;5.876;2023-03-01T08:36:53;7.40;;;4.05;;
73113;SDS011;61301;51.956;5.876;2023-03-01T08:39:20;7.75;;;4.72;;
73113;SDS011;61301;51.956;5.876;2023-03-01T08:41:47;6.68;;;4.05;;
73113;SDS011;61301;51.956;5.876;2023-03-01T08:44:13;6.78;;;4.90;;
73113;SDS011;61301;51.956;5.876;2023-03-01T08:46:42;6.65;;;3.75;;
73113;SDS011;61301;51.956;5.876;2023-03-01T08:49:13;4.88;;;3.35;;
73113;SDS011;61301;51.956;5.876;2023-03-01T08:51:41;8.38;;;4.45;;
73113;SDS011;61301;51.956;5.876;2023-03-01T08:54:11;6.72;;;4.50;;
73113;SDS011;61301;51.956;5.876;2023-03-01T08:56:40;6.78;;;4.43;;
73113;SDS011;61301;51.956;5.876;2023-03-01T08:59:06;8.73;;;4.80;;
73113;SDS011;61301;51.956;5.876;2023-03-01T09:01:33;5.97;;;4.32;;
73113;SDS011;61301;51.956;5.876;2023-03-01T09:03:59;6.82;;;4.65;;
73113;SDS011;61301;51.956;5.876;2023-03-01T09:06:25;6.60;;;4.80;;
73113;SDS011;61301;51.956;5.876;2023-03-01T09:08:51;8.57;;;4.88;;
73113;SDS011;61301;51.956;5.876;2023-03-01T09:11:18;6.55;;;4.70;;
73113;SDS011;61301;51.956;5.876;2023-03-01T09:13:46;6.93;;;4.03;;
73113;SDS011;61301;51.956;5.876;2023-03-01T09:16:14;8.07;;;4.30;;
73113;SDS011;61301;51.956;5.876;2023-03-01T09:18:43;6.13;;;4.20;;
73113;SDS011;61301;51.956;5.876;2023-03-01T09:21:10;7.93;;;4.10;;
73113;SDS011;61301;51.956;5.876;2023-03-01T09:23:42;6.65;;;4.50;;
73113;SDS011;61301;51.956;5.876;2023-03-01T09:26:11;5.30;;;3.58;;
73113;SDS011;61301;51.956;5.876;2023-03-01T09:28:39;5.65;;;3.90;;
73113;SDS011;61301;51.956;5.876;2023-03-01T09:31:09;5.72;;;3.95;;
73113;SDS011;61301;51.956;5.876;2023-03-01T09:33:38;6.78;;;3.80;;
73113;SDS011;61301;51.956;5.876;2023-03-01T09:36:06;8.10;;;3.95;;
73113;SDS011;61301;51.956;5.876;2023-03-01T09:38:35;9.00;;;4.38;;
73113;SDS011;61301;51.956;5.876;2023-03-01T09:41:01;7.20;;;4.45;;
73113;SDS011;61301;51.956;5.876;2023-03-01T09:46:12;7.35;;;4.95;;
73113;SDS011;61301;51.956;5.876;2023-03-01T09:48:44;5.50;;;4.03;;
73113;SDS011;61301;51.956;5.876;2023-03-01T09:51:35;11.80;;;5.07;;
73113;SDS011;61301;51.956;5.876;2023-03-01T09:54:05;7.28;;;4.85;;
73113;SDS011;61301;51.956;5.876;2023-03-01T10:02:05;6.63;;;4.65;;
73113;SDS011;61301;51.956;5.876;2023-03-01T10:04:50;7.22;;;4.30;;
73113;SDS011;61301;51.956;5.876;2023-03-01T10:10:32;6.13;;;4.65;;
73113;SDS011;61301;51.956;5.876;2023-03-01T10:13:10;7.25;;;5.45;;
73113;SDS011;61301;51.956;5.876;2023-03-01T10:15:40;7.75;;;5.50;;
73113;SDS011;61301;51.956;5.876;2023-03-01T10:18:11;10.30;;;5.93;;
73113;SDS011;61301;51.956;5.876;2023-03-01T10:23:19;9.05;;;5.80;;
73113;SDS011;61301;51.956;5.876;2023-03-01T10:25:52;8.05;;;5.75;;
73113;SDS011;61301;51.956;5.876;2023-03-01T10:28:31;7.95;;;5.57;;
73113;SDS011;61301;51.956;5.876;2023-03-01T10:31:13;5.88;;;4.70;;
73113;SDS011;61301;51.956;5.876;2023-03-01T10:33:43;7.60;;;4.93;;
73113;SDS011;61301;51.956;5.876;2023-03-01T10:36:09;8.38;;;5.22;;
73113;SDS011;61301;51.956;5.876;2023-03-01T10:38:57;5.75;;;4.40;;
73113;SDS011;61301;51.956;5.876;2023-03-01T10:41:24;6.68;;;5.05;;
73113;SDS011;61301;51.956;5.876;2023-03-01T10:43:53;7.45;;;4.90;;
73113;SDS011;61301;51.956;5.876;2023-03-01T10:51:46;6.05;;;4.43;;
73113;SDS011;61301;51.956;5.876;2023-03-01T10:57:00;5.95;;;4.57;;
73113;SDS011;61301;51.956;5.876;2023-03-01T10:59:35;6.65;;;4.68;;
73113;SDS011;61301;51.956;5.876;2023-03-01T11:04:38;8.75;;;4.72;;
73113;SDS011;61301;51.956;5.876;2023-03-01T11:07:04;6.13;;;4.43;;
73113;SDS011;61301;51.956;5.876;2023-03-01T11:09:31;6.72;;;3.95;;
73113;SDS011;61301;51.956;5.876;2023-03-01T11:12:13;5.10;;;3.85;;
73113;SDS011;61301;51.956;5.876;2023-03-01T11:14:48;7.97;;;4.97;;
73113;SDS011;61301;51.956;5.876;2023-03-01T11:17:31;7.28;;;4.15;;
73113;SDS011;61301;51.956;5.876;2023-03-01T11:22:47;5.80;;;4.05;;
73113;SDS011;61301;51.956;5.876;2023-03-01T11:25:17;6.90;;;4.43;;
73113;SDS011;61301;51.956;5.876;2023-03-01T11:27:47;7.20;;;3.72;;
73113;SDS011;61301;51.956;5.876;2023-03-01T11:30:21;6.78;;;4.78;;
73113;SDS011;61301;51.956;5.876;2023-03-01T11:35:41;7.35;;;4.30;;
73113;SDS011;61301;51.956;5.876;2023-03-01T11:38:16;5.97;;;4.10;;
73113;SDS011;61301;51.956;5.876;2023-03-01T11:43:19;6.82;;;4.43;;
73113;SDS011;61301;51.956;5.876;2023-03-01T11:57:01;6.78;;;4.03;;
73113;SDS011;61301;51.956;5.876;2023-03-01T12:10:28;5.13;;;3.90;;
73113;SDS011;61301;51.956;5.876;2023-03-01T12:13:00;6.78;;;3.80;;
73113;SDS011;61301;51.956;5.876;2023-03-01T12:15:38;6.28;;;3.83;;
73113;SDS011;61301;51.956;5.876;2023-03-01T12:21:10;6.95;;;4.60;;
73113;SDS011;61301;51.956;5.876;2023-03-01T12:24:02;6.93;;;4.13;;
73113;SDS011;61301;51.956;5.876;2023-03-01T12:29:39;6.50;;;4.15;;
73113;SDS011;61301;51.956;5.876;2023-03-01T12:32:33;8.93;;;3.95;;
73113;SDS011;61301;51.956;5.876;2023-03-01T12:37:59;7.30;;;4.00;;
73113;SDS011;61301;51.956;5.876;2023-03-01T12:51:26;5.88;;;4.10;;
73113;SDS011;61301;51.956;5.876;2023-03-01T12:53:55;6.93;;;4.00;;
73113;SDS011;61301;51.956;5.876;2023-03-01T12:56:25;6.22;;;3.17;;
73113;SDS011;61301;51.956;5.876;2023-03-01T13:05:02;5.07;;;3.28;;
73113;SDS011;61301;51.956;5.876;2023-03-01T13:10:19;8.20;;;3.58;;
73113;SDS011;61301;51.956;5.876;2023-03-01T13:15:36;6.35;;;4.07;;
73113;SDS011;61301;51.956;5.876;2023-03-01T13:20:48;6.72;;;3.88;;
73113;SDS011;61301;51.956;5.876;2023-03-01T13:31:04;7.47;;;3.92;;
73113;SDS011;61301;51.956;5.876;2023-03-01T13:35:59;6.25;;;4.07;;
73113;SDS011;61301;51.956;5.876;2023-03-01T13:41:12;4.93;;;3.60;;
73113;SDS011;61301;51.956;5.876;2023-03-01T13:43:43;5.13;;;3.60;;
73113;SDS011;61301;51.956;5.876;2023-03-01T13:46:19;9.43;;;4.85;;
73113;SDS011;61301;51.956;5.876;2023-03-01T13:48:50;6.90;;;3.83;;
73113;SDS011;61301;51.956;5.876;2023-03-01T13:51:26;4.32;;;3.22;;
73113;SDS011;61301;51.956;5.876;2023-03-01T13:53:53;5.70;;;3.58;;
73113;SDS011;61301;51.956;5.876;2023-03-01T13:56:24;6.78;;;3.90;;
73113;SDS011;61301;51.956;5.876;2023-03-01T13:59:00;7.20;;;3.72;;
73113;SDS011;61301;51.956;5.876;2023-03-01T14:03:59;5.07;;;3.58;;
73113;SDS011;61301;51.956;5.876;2023-03-01T14:06:27;4.50;;;3.03;;
73113;SDS011;61301;51.956;5.876;2023-03-01T14:09:10;3.60;;;2.88;;
73113;SDS011;61301;51.956;5.876;2023-03-01T14:11:52;7.15;;;3.53;;
73113;SDS011;61301;51.956;5.876;2023-03-01T14:14:30;5.18;;;3.35;;
73113;SDS011;61301;51.956;5.876;2023-03-01T14:17:16;5.97;;;3.58;;
73113;SDS011;61301;51.956;5.876;2023-03-01T14:19:46;4.45;;;3.65;;
73113;SDS011;61301;51.956;5.876;2023-03-01T14:22:20;6.75;;;3.58;;
73113;SDS011;61301;51.956;5.876;2023-03-01T14:24:49;4.93;;;3.60;;
73113;SDS011;61301;51.956;5.876;2023-03-01T14:27:17;5.47;;;3.47;;
73113;SDS011;61301;51.956;5.876;2023-03-01T14:29:54;5.50;;;3.47;;
73113;SDS011;61301;51.956;5.876;2023-03-01T14:32:27;5.65;;;3.80;;
73113;SDS011;61301;51.956;5.876;2023-03-01T14:34:54;5.20;;;3.35;;
73113;SDS011;61301;51.956;5.876;2023-03-01T14:37:25;4.70;;;3.10;;
73113;SDS011;61301;51.956;5.876;2023-03-01T14:39:54;4.78;;;3.47;;
73113;SDS011;61301;51.956;5.876;2023-03-01T14:42:22;5.03;;;3.47;;
73113;SDS011;61301;51.956;5.876;2023-03-01T14:44:51;5.07;;;3.70;;
73113;SDS011;61301;51.956;5.876;2023-03-01T14:47:37;4.18;;;3.10;;
73113;SDS011;61301;51.956;5.876;2023-03-01T14:50:08;4.30;;;3.40;;
73113;SDS011;61301;51.956;5.876;2023-03-01T14:52:46;3.83;;;3.22;;
73113;SDS011;61301;51.956;5.876;2023-03-01T14:55:37;6.07;;;3.53;;
73113;SDS011;61301;51.956;5.876;2023-03-01T14:58:03;6.53;;;3.50;;
73113;SDS011;61301;51.956;5.876;2023-03-01T15:00:31;6.10;;;4.00;;
73113;SDS011;61301;51.956;5.876;2023-03-01T15:03:11;5.35;;;3.38;;
73113;SDS011;61301;51.956;5.876;2023-03-01T15:05:40;8.30;;;4.20;;
73113;SDS011;61301;51.956;5.876;2023-03-01T15:08:11;4.43;;;3.78;;
73113;SDS011;61301;51.956;5.876;2023-03-01T15:10:55;6.53;;;3.92;;
73113;SDS011;61301;51.956;5.876;2023-03-01T15:13:28;5.15;;;3.28;;
73113;SDS011;61301;51.956;5.876;2023-03-01T15:16:03;3.78;;;2.92;;
73113;SDS011;61301;51.956;5.876;2023-03-01T15:18:43;6.22;;;3.33;;
73113;SDS011;61301;51.956;5.876;2023-03-01T15:21:16;4.05;;;3.17;;
73113;SDS011;61301;51.956;5.876;2023-03-01T15:23:48;6.18;;;3.70;;
73113;SDS011;61301;51.956;5.876;2023-03-01T15:26:23;5.13;;;3.00;;
73113;SDS011;61301;51.956;5.876;2023-03-01T15:28:52;2.80;;;2.53;;
73113;SDS011;61301;51.956;5.876;2023-03-01T15:31:22;4.90;;;3.60;;
73113;SDS011;61301;51.956;5.876;2023-03-01T15:33:49;6.93;;;3.85;;
73113;SDS011;61301;51.956;5.876;2023-03-01T15:41:58;7.15;;;3.60;;
73113;SDS011;61301;51.956;5.876;2023-03-01T15:44:26;4.05;;;3.05;;
73113;SDS011;61301;51.956;5.876;2023-03-01T15:46:53;4.90;;;3.40;;
73113;SDS011;61301;51.956;5.876;2023-03-01T15:49:53;4.78;;;2.88;;
73113;SDS011;61301;51.956;5.876;2023-03-01T15:52:14;3.65;;;2.80;;
73113;SDS011;61301;51.956;5.876;2023-03-01T15:54:46;4.80;;;3.40;;
73113;SDS011;61301;51.956;5.876;2023-03-01T15:57:13;6.07;;;3.65;;
73113;SDS011;61301;51.956;5.876;2023-03-01T15:59:41;5.53;;;3.90;;
73113;SDS011;61301;51.956;5.876;2023-03-01T16:02:10;5.68;;;3.90;;
73113;SDS011;61301;51.956;5.876;2023-03-01T16:04:38;4.78;;;3.33;;
73113;SDS011;61301;51.956;5.876;2023-03-01T16:07:05;5.03;;;3.15;;
73113;SDS011;61301;51.956;5.876;2023-03-01T16:09:31;4.07;;;3.05;;
73113;SDS011;61301;51.956;5.876;2023-03-01T16:11:57;6.70;;;3.83;;
73113;SDS011;61301;51.956;5.876;2023-03-01T16:14:24;4.93;;;3.13;;
73113;SDS011;61301;51.956;5.876;2023-03-01T16:16:49;3.92;;;2.70;;
73113;SDS011;61301;51.956;5.876;2023-03-01T16:19:15;4.90;;;3.38;;
73113;SDS011;61301;51.956;5.876;2023-03-01T16:21:42;11.23;;;3.10;;
73113;SDS011;61301;51.956;5.876;2023-03-01T16:24:12;5.05;;;3.33;;
73113;SDS011;61301;51.956;5.876;2023-03-01T16:26:39;5.88;;;2.83;;
73113;SDS011;61301;51.956;5.876;2023-03-01T16:29:04;4.75;;;3.47;;
73113;SDS011;61301;51.956;5.876;2023-03-01T16:31:31;4.32;;;3.08;;
73113;SDS011;61301;51.956;5.876;2023-03-01T16:33:57;5.55;;;3.10;;
73113;SDS011;61301;51.956;5.876;2023-03-01T16:36:25;7.13;;;2.85;;
73113;SDS011;61301;51.956;5.876;2023-03-01T16:38:54;4.63;;;3.13;;
73113;SDS011;61301;51.956;5.876;2023-03-01T16:41:23;4.97;;;3.05;;
73113;SDS011;61301;51.956;5.876;2023-03-01T16:43:50;3.80;;;2.38;;
73113;SDS011;61301;51.956;5.876;2023-03-01T16:46:17;3.45;;;2.53;;
73113;SDS011;61301;51.956;5.876;2023-03-01T16:48:45;4.53;;;2.90;;
73113;SDS011;61301;51.956;5.876;2023-03-01T16:51:12;5.00;;;2.72;;
73113;SDS011;61301;51.956;5.876;2023-03-01T16:53:38;3.97;;;2.55;;
73113;SDS011;61301;51.956;5.876;2023-03-01T16:56:05;4.22;;;2.50;;
73113;SDS011;61301;51.956;5.876;2023-03-01T16:58:34;3.00;;;2.00;;
73113;SDS011;61301;51.956;5.876;2023-03-01T17:01:11;3.40;;;2.20;;
73113;SDS011;61301;51.956;5.876;2023-03-01T17:03:39;3.20;;;2.40;;
73113;SDS011;61301;51.956;5.876;2023-03-01T17:06:07;3.47;;;2.67;;
73113;SDS011;61301;51.956;5.876;2023-03-01T17:08:35;5.65;;;2.80;;